METAR Data
IDs: Format: Raw Decoded Include TAF

Data at: 0707 UTC 18 Sep 2021

ESSL 180650Z 05006KT 9999 BKN047 10/06 Q1022